Time;durP1;ratioP1;P1;durP2;ratioP2;P2;SDS_P1;SDS_P2;PMS_P1;PMS_P2;Temp;Humidity;BMP_temperature;BMP_pressure;BME280_temperature;BME280_humidity;BME280_pressure;Samples;Min_cycle;Max_cycle;Signal;HPM_P1;HPM_P2
2021/09/20 00:00:59;;;;;;;2.97;2.67;;;;;;;8.82;94.39;102424.53;4813707;29;20030;-84
2021/09/20 00:03:25;;;;;;;3.20;2.80;;;;;;;8.81;95.12;102422.84;4825579;29;20031;-83
2021/09/20 00:05:50;;;;;;;3.00;2.70;;;;;;;8.84;94.67;102430.59;4806681;29;20106;-84
2021/09/20 00:08:15;;;;;;;4.05;3.35;;;;;;;8.84;94.19;102424.34;4822900;29;20034;-83
2021/09/20 00:10:41;;;;;;;3.17;2.85;;;;;;;8.77;94.42;102409.84;4806909;29;20038;-84
2021/09/20 00:13:06;;;;;;;4.80;2.70;;;;;;;8.85;94.98;102428.75;4808558;29;20031;-83
2021/09/20 00:15:32;;;;;;;7.30;3.28;;;;;;;8.86;94.05;102430.44;4825043;29;20038;-82
2021/09/20 00:17:57;;;;;;;4.25;3.05;;;;;;;8.80;94.76;102425.66;4824241;29;20038;-83
2021/09/20 00:20:22;;;;;;;6.38;3.45;;;;;;;8.86;94.61;102431.28;4808338;29;20129;-84
2021/09/20 00:22:48;;;;;;;4.10;2.97;;;;;;;8.84;94.87;102424.34;4794731;29;20035;-84
2021/09/20 00:25:14;;;;;;;4.47;2.88;;;;;;;8.84;94.56;102429.72;4822431;29;20022;-83
2021/09/20 00:27:39;;;;;;;4.10;3.15;;;;;;;8.85;94.59;102434.13;4816885;29;20062;-83
2021/09/20 00:30:06;;;;;;;5.60;3.05;;;;;;;8.83;95.08;102428.88;4795748;29;20470;-83
2021/09/20 00:32:32;;;;;;;3.38;3.08;;;;;;;8.80;94.88;102420.28;4824196;29;20031;-83
2021/09/20 00:34:58;;;;;;;5.32;3.17;;;;;;;8.77;95.21;102423.25;4822389;29;20074;-82
2021/09/20 00:37:23;;;;;;;5.57;2.80;;;;;;;8.76;96.01;102429.63;4808137;29;20042;-83
2021/09/20 00:39:49;;;;;;;5.15;2.90;;;;;;;8.74;95.95;102434.28;4800705;30;20065;-83
2021/09/20 00:42:14;;;;;;;4.30;3.40;;;;;;;8.73;96.11;102436.13;4810727;29;20035;-83
2021/09/20 00:44:40;;;;;;;4.90;2.90;;;;;;;8.66;95.78;102422.47;4820701;29;20046;-83
2021/09/20 00:47:05;;;;;;;4.15;3.28;;;;;;;8.74;95.98;102434.28;4803489;29;20036;-83
2021/09/20 00:49:30;;;;;;;4.40;2.90;;;;;;;8.74;96.27;102431.59;4804221;30;20041;-83
2021/09/20 00:51:56;;;;;;;5.03;3.03;;;;;;;8.78;96.16;102435.72;4804339;30;20123;-84
2021/09/20 00:54:21;;;;;;;4.60;3.33;;;;;;;8.74;96.45;102434.28;4815191;29;20101;-84
2021/09/20 00:56:48;;;;;;;4.40;3.00;;;;;;;8.72;96.02;102429.09;4828860;29;20038;-84
2021/09/20 00:59:13;;;;;;;5.13;3.72;;;;;;;8.72;95.99;102430.94;4824526;29;20042;-84
2021/09/20 01:01:39;;;;;;;4.95;3.35;;;;;;;8.59;96.53;102410.63;4808051;29;20030;-83
2021/09/20 01:04:05;;;;;;;4.47;3.35;;;;;;;8.69;96.90;102426.69;4808289;29;20046;-83
2021/09/20 01:06:30;;;;;;;5.68;3.30;;;;;;;8.60;96.47;102411.47;4824349;29;20039;-83
2021/09/20 01:08:56;;;;;;;4.45;3.35;;;;;;;8.65;96.70;102434.19;4824030;29;20026;-83
2021/09/20 01:11:22;;;;;;;4.03;3.40;;;;;;;8.62;97.27;102430.97;4808085;29;20046;-83
2021/09/20 01:13:47;;;;;;;4.78;3.17;;;;;;;8.56;97.50;102432.38;4809062;29;20068;-84
2021/09/20 01:16:12;;;;;;;3.90;3.38;;;;;;;8.55;97.09;102430.69;4816996;29;20043;-84
2021/09/20 01:18:38;;;;;;;3.60;3.28;;;;;;;8.50;97.68;102419.53;4792633;30;20039;-83
2021/09/20 01:21:03;;;;;;;3.45;2.97;;;;;;;8.49;97.72;102427.75;4788481;30;20031;-84
2021/09/20 01:23:29;;;;;;;4.60;3.28;;;;;;;8.41;97.67;102418.59;4804237;29;20095;-84
2021/09/20 01:25:54;;;;;;;3.50;3.20;;;;;;;8.43;97.45;102419.28;4820921;29;20043;-84
2021/09/20 01:28:20;;;;;;;4.95;3.17;;;;;;;8.40;97.93;102419.56;4822128;29;20145;-83
2021/09/20 01:30:46;;;;;;;5.80;3.42;;;;;;;8.31;97.65;102400.78;4805643;29;20102;-83
2021/09/20 01:33:11;;;;;;;3.80;3.45;;;;;;;8.38;97.78;102413.53;4806908;29;20046;-83
2021/09/20 01:35:37;;;;;;;4.10;3.40;;;;;;;8.41;98.38;102418.59;4822210;29;20093;-84
2021/09/20 01:38:03;;;;;;;4.38;3.30;;;;;;;8.41;98.12;102415.91;4820899;29;20068;-83
2021/09/20 01:40:28;;;;;;;4.82;3.35;;;;;;;8.37;97.69;102413.63;4821624;29;20035;-83
2021/09/20 01:42:55;;;;;;;7.03;3.80;;;;;;;8.23;98.44;102398.84;4823018;29;20035;-83
2021/09/20 01:45:20;;;;;;;3.92;3.47;;;;;;;8.33;98.56;102415.75;4778975;30;20054;-82
2021/09/20 01:47:46;;;;;;;5.35;3.78;;;;;;;8.37;98.19;102425.19;4804723;30;20118;-83
2021/09/20 01:50:14;;;;;;;5.28;3.63;;;;;;;8.37;98.76;102422.50;4806752;29;20037;-83
2021/09/20 01:52:41;;;;;;;4.88;3.88;;;;;;;8.37;98.50;102414.47;4821327;29;20347;-82
2021/09/20 01:55:07;;;;;;;6.07;3.72;;;;;;;8.32;98.93;102402.50;4821775;29;20041;-84
2021/09/20 01:57:33;;;;;;;4.85;3.78;;;;;;;8.32;99.48;102410.53;4820890;29;20031;-83
2021/09/20 01:59:59;;;;;;;5.22;3.60;;;;;;;8.19;98.93;102392.06;4826489;29;20055;-83
2021/09/20 02:02:24;;;;;;;4.75;3.58;;;;;;;8.27;99.51;102404.75;4827795;29;20058;-83
2021/09/20 02:04:50;;;;;;;4.28;3.60;;;;;;;8.21;98.92;102395.44;4812264;29;20100;-83
2021/09/20 02:07:15;;;;;;;3.92;3.45;;;;;;;8.22;99.57;102406.03;4813893;29;20103;-83
2021/09/20 02:09:41;;;;;;;5.07;3.22;;;;;;;8.23;99.15;102401.53;4827953;29;20031;-83
2021/09/20 02:12:06;;;;;;;4.32;3.40;;;;;;;8.13;99.78;102388.13;4818131;29;20052;-84
2021/09/20 02:14:32;;;;;;;5.10;3.42;;;;;;;8.24;99.23;102406.75;4834392;29;20035;-85
2021/09/20 02:16:57;;;;;;;4.43;3.33;;;;;;;8.23;99.20;102406.88;4799474;29;20042;-82
2021/09/20 02:19:23;;;;;;;4.00;3.40;;;;;;;8.19;99.90;102400.13;4827601;29;20039;-81
2021/09/20 02:21:48;;;;;;;4.40;3.42;;;;;;;8.26;99.80;102403.91;4812351;29;20034;-82
2021/09/20 02:24:14;;;;;;;5.93;3.30;;;;;;;8.26;99.62;102405.75;4828980;29;20027;-83
2021/09/20 02:26:39;;;;;;;4.63;3.20;;;;;;;8.24;99.24;102400.53;4824902;29;20035;-83
2021/09/20 02:29:05;;;;;;;3.83;3.42;;;;;;;8.24;99.50;102400.53;4829127;29;20099;-84
2021/09/20 02:31:31;;;;;;;3.92;3.25;;;;;;;8.20;99.45;102388.41;4818043;29;20378;-83
2021/09/20 02:33:57;;;;;;;4.03;3.65;;;;;;;8.27;99.86;102399.38;4832984;29;20023;-83
2021/09/20 02:36:23;;;;;;;7.03;3.65;;;;;;;8.24;99.53;102395.16;4827351;29;20062;-83
2021/09/20 02:38:48;;;;;;;6.10;3.90;;;;;;;8.20;100.00;102393.75;4824143;29;20054;-82
2021/09/20 02:41:15;;;;;;;4.30;3.70;;;;;;;8.24;99.49;102401.38;4823063;29;20390;-82
2021/09/20 02:43:40;;;;;;;5.00;3.38;;;;;;;8.24;99.24;102404.06;4824324;29;20514;-82
2021/09/20 02:46:06;;;;;;;5.15;3.70;;;;;;;8.26;99.90;102408.44;4809650;29;20041;-83
2021/09/20 02:48:32;;;;;;;6.32;3.60;;;;;;;8.24;99.66;102408.56;4815959;29;20030;-84
2021/09/20 02:50:57;;;;;;;4.25;3.75;;;;;;;8.27;99.91;102410.97;4827940;29;20055;-82
2021/09/20 02:53:23;;;;;;;5.47;3.35;;;;;;;8.28;99.50;102409.13;4825828;29;20027;-82
2021/09/20 02:55:49;;;;;;;4.07;3.55;;;;;;;8.23;99.40;102407.72;4810224;29;20117;-83
2021/09/20 02:58:15;;;;;;;5.80;3.97;;;;;;;8.21;100.00;102411.53;4825607;29;20099;-83
2021/09/20 03:00:40;;;;;;;3.83;3.45;;;;;;;8.26;99.75;102417.31;4825602;29;20129;-81
2021/09/20 03:03:07;;;;;;;6.50;3.78;;;;;;;8.23;99.92;102415.78;4825796;29;20106;-84
2021/09/20 03:05:32;;;;;;;4.82;3.78;;;;;;;8.22;100.00;102416.75;4810590;29;20037;-82
2021/09/20 03:07:58;;;;;;;8.95;3.88;;;;;;;8.27;99.43;102421.69;4825612;29;20034;-83
2021/09/20 03:10:23;;;;;;;6.95;3.53;;;;;;;8.27;99.68;102415.47;4824732;29;20039;-82
2021/09/20 03:12:49;;;;;;;5.82;3.70;;;;;;;8.18;99.91;102409.16;4791636;29;20050;-82
2021/09/20 03:15:14;;;;;;;5.32;3.90;;;;;;;8.21;100.00;102420.44;4806836;29;20068;-82
2021/09/20 03:17:40;;;;;;;6.68;3.88;;;;;;;8.17;99.71;102410.13;4825425;29;20098;-82
2021/09/20 03:20:06;;;;;;;4.70;3.85;;;;;;;8.24;99.72;102416.59;4823607;29;20035;-82
2021/09/20 03:22:31;;;;;;;7.72;4.05;;;;;;;8.17;99.89;102416.34;4791807;29;20034;-83
2021/09/20 03:24:57;;;;;;;5.40;3.88;;;;;;;8.16;100.00;102424.53;4823704;29;20031;-82
2021/09/20 03:27:22;;;;;;;4.55;4.10;;;;;;;8.09;100.00;102418.06;4822289;29;20058;-82
2021/09/20 03:29:48;;;;;;;5.22;4.28;;;;;;;8.07;100.00;102412.00;4823379;29;20038;-81
2021/09/20 03:32:13;;;;;;;4.28;3.88;;;;;;;8.02;100.00;102414.28;4824028;29;20130;-83
2021/09/20 03:34:39;;;;;;;5.60;3.92;;;;;;;8.00;100.00;102409.88;4795774;29;20061;-83
2021/09/20 03:37:04;;;;;;;8.23;4.70;;;;;;;8.04;100.00;102429.19;4811373;29;20042;-83
2021/09/20 03:39:30;;;;;;;5.35;3.97;;;;;;;7.97;100.00;102430.75;4807991;29;20043;-82
2021/09/20 03:41:55;;;;;;;5.97;4.13;;;;;;;7.90;100.00;102416.25;4794815;29;20034;-84
2021/09/20 03:44:21;;;;;;;5.72;4.43;;;;;;;7.94;100.00;102431.88;4823793;29;20110;-83
2021/09/20 03:46:46;;;;;;;4.55;3.97;;;;;;;7.86;100.00;102421.03;4795542;29;20035;-84
2021/09/20 03:49:12;;;;;;;6.88;4.57;;;;;;;7.88;100.00;102421.75;4825827;29;20042;-83
2021/09/20 03:51:37;;;;;;;6.00;4.78;;;;;;;7.92;100.00;102428.53;4826681;29;20027;-83
2021/09/20 03:54:04;;;;;;;6.32;4.72;;;;;;;7.86;100.00;102429.06;4810984;29;20064;-83
2021/09/20 03:56:30;;;;;;;7.25;5.10;;;;;;;7.91;100.00;102434.00;4809719;29;20039;-83
2021/09/20 03:58:55;;;;;;;4.75;4.15;;;;;;;7.89;100.00;102431.47;4824267;29;20041;-83
2021/09/20 04:01:21;;;;;;;9.38;4.70;;;;;;;7.85;100.00;102424.72;4792318;29;20046;-83
2021/09/20 04:03:46;;;;;;;5.40;4.82;;;;;;;7.91;100.00;102434.00;4821732;29;20068;-83
2021/09/20 04:06:11;;;;;;;7.80;5.20;;;;;;;7.95;100.00;102430.91;4821871;29;20466;-82
2021/09/20 04:08:37;;;;;;;7.05;4.88;;;;;;;7.94;100.00;102428.38;4807939;29;20103;-83
2021/09/20 04:11:02;;;;;;;5.05;4.35;;;;;;;7.92;100.00;102419.63;4819192;29;20034;-82
2021/09/20 04:13:28;;;;;;;5.78;4.20;;;;;;;7.98;100.00;102433.31;4803018;29;20030;-82
2021/09/20 04:15:54;;;;;;;6.60;4.72;;;;;;;7.93;100.00;102416.81;4818720;29;20098;-82
2021/09/20 04:18:22;;;;;;;7.75;5.10;;;;;;;8.01;100.00;102421.44;4818978;29;20046;-81
2021/09/20 04:20:49;;;;;;;5.22;4.72;;;;;;;8.06;100.00;102440.63;4802070;29;20103;-81
2021/09/20 04:23:15;;;;;;;10.57;5.22;;;;;;;8.06;100.00;102437.97;4792277;29;20067;-87
2021/09/20 04:25:40;;;;;;;6.95;5.03;;;;;;;7.95;100.00;102417.50;4967891;24;20066;-88
2021/09/20 04:33:12;;;;;;;7.28;5.10;;;;;;;7.36;100.00;102362.25;4778276;29;19926;-81
2021/09/20 04:35:39;;;;;;;5.93;5.05;;;;;;;7.54;100.00;102387.31;4781550;30;20035;-82
2021/09/20 04:38:05;;;;;;;6.07;5.15;;;;;;;7.22;100.00;102343.91;4785616;30;20019;-83
2021/09/20 04:40:32;;;;;;;8.80;5.68;;;;;;;7.84;100.00;102444.44;4790573;29;20093;-81
2021/09/20 04:42:58;;;;;;;8.38;5.43;;;;;;;7.10;100.00;102329.78;4768406;30;20352;-80
2021/09/20 04:45:24;;;;;;;6.30;5.55;;;;;;;7.10;100.00;102335.16;4785178;30;20050;-81
2021/09/20 04:47:50;;;;;;;9.40;5.63;;;;;;;7.51;100.00;102397.47;4781219;29;20032;-80
2021/09/20 04:50:15;;;;;;;6.15;5.32;;;;;;;7.58;100.00;102425.38;4781270;30;20047;-81
2021/09/20 04:52:41;;;;;;;6.43;5.78;;;;;;;7.24;100.00;102358.00;4782316;30;20047;-82
2021/09/20 04:55:07;;;;;;;6.88;5.80;;;;;;;7.10;100.00;102345.84;4782650;30;20024;-81
2021/09/20 04:57:33;;;;;;;8.13;5.80;;;;;;;7.11;100.00;102347.53;4781790;30;20035;-81
2021/09/20 04:59:58;;;;;;;7.20;6.10;;;;;;;7.48;100.00;102403.97;4784046;30;20039;-81
2021/09/20 05:02:24;;;;;;;7.72;6.22;;;;;;;7.23;100.00;102375.88;4785347;30;20038;-81
2021/09/20 05:04:49;;;;;;;7.38;6.28;;;;;;;7.33;100.00;102385.78;4775471;30;20053;-83
2021/09/20 05:07:15;;;;;;;9.13;6.15;;;;;;;7.13;100.00;102367.00;4777190;30;20039;-82
2021/09/20 05:09:40;;;;;;;7.30;6.45;;;;;;;7.25;100.00;102391.81;4785641;30;20035;-81
2021/09/20 05:12:06;;;;;;;8.20;5.65;;;;;;;7.29;100.00;102398.59;4785898;30;20055;-81
2021/09/20 05:14:31;;;;;;;8.05;6.60;;;;;;;6.96;100.00;102341.75;4770819;30;20065;-81
2021/09/20 05:17:03;;;;;;;7.70;6.25;;;;;;;7.25;100.00;102405.19;4788998;30;20043;-83
2021/09/20 05:19:29;;;;;;;8.65;6.68;;;;;;;7.05;100.00;102361.47;4776969;30;20046;-82
2021/09/20 05:21:55;;;;;;;6.15;5.53;;;;;;;7.00;100.00;102347.66;4776825;30;20055;-85
2021/09/20 05:24:20;;;;;;;7.78;5.75;;;;;;;7.27;100.00;102398.72;4782306;30;20036;-82
2021/09/20 05:26:46;;;;;;;7.60;6.05;;;;;;;7.33;100.00;102401.84;4765916;30;20035;-80
2021/09/20 05:29:12;;;;;;;7.97;5.78;;;;;;;7.45;100.00;102423.00;4777913;30;20065;-80
2021/09/20 05:31:37;;;;;;;8.32;6.20;;;;;;;7.02;100.00;102348.41;4776216;30;20109;-80
2021/09/20 05:34:03;;;;;;;6.53;5.72;;;;;;;7.44;100.00;102426.66;4775009;30;20065;-80
2021/09/20 05:36:28;;;;;;;6.72;5.60;;;;;;;7.73;100.00;102458.84;4774646;30;20035;-81
2021/09/20 05:38:53;;;;;;;6.78;5.50;;;;;;;7.06;100.00;102364.03;4773815;30;20027;-79
2021/09/20 05:41:19;;;;;;;7.20;5.78;;;;;;;7.72;100.00;102469.69;4757022;30;20024;-79
2021/09/20 05:43:44;;;;;;;7.97;5.75;;;;;;;7.71;100.00;102462.63;4754853;30;20066;-80
2021/09/20 05:46:10;;;;;;;6.30;5.60;;;;;;;7.67;100.00;102445.16;4762864;30;20044;-80
2021/09/20 05:48:35;;;;;;;7.28;5.53;;;;;;;7.79;100.00;102465.47;4780461;30;20075;-83
2021/09/20 05:51:01;;;;;;;6.38;5.63;;;;;;;7.78;100.00;102466.44;4777185;30;20061;-81
2021/09/20 05:53:28;;;;;;;6.90;5.05;;;;;;;7.78;100.00;102469.13;4776888;30;20035;-82
2021/09/20 05:55:53;;;;;;;10.20;5.88;;;;;;;7.85;100.00;102472.97;4763686;30;20039;-80
2021/09/20 05:58:19;;;;;;;7.03;5.78;;;;;;;7.75;100.00;102461.38;4774718;30;20036;-81
2021/09/20 06:00:44;;;;;;;10.25;5.78;;;;;;;7.86;100.00;102471.97;4765817;30;20031;-81
2021/09/20 06:03:10;;;;;;;6.28;5.65;;;;;;;7.90;100.00;102472.53;4777719;30;20115;-81
2021/09/20 06:05:38;;;;;;;6.57;5.53;;;;;;;7.95;100.00;102468.44;4778640;30;20418;-82
2021/09/20 06:08:05;;;;;;;10.30;5.20;;;;;;;8.05;100.00;102479.16;4767085;30;20027;-80
2021/09/20 06:10:31;;;;;;;7.95;5.63;;;;;;;8.02;100.00;102478.59;4770983;30;20055;-83
2021/09/20 06:12:57;;;;;;;7.53;5.57;;;;;;;8.05;100.00;102476.50;4766210;30;20035;-83
2021/09/20 06:15:22;;;;;;;5.90;5.30;;;;;;;8.14;100.00;102469.41;4787242;30;20046;-83
2021/09/20 06:17:47;;;;;;;7.47;5.60;;;;;;;8.17;100.00;102474.50;4754038;30;20039;-82
2021/09/20 06:20:13;;;;;;;6.30;5.38;;;;;;;8.14;100.00;102474.78;4771564;30;20028;-84
2021/09/20 06:22:39;;;;;;;5.85;5.25;;;;;;;8.22;100.00;102488.34;4777012;30;20044;-84
2021/09/20 06:25:07;;;;;;;6.38;5.20;;;;;;;8.27;100.00;102479.84;4790206;29;20027;-83
2021/09/20 06:27:33;;;;;;;6.63;5.03;;;;;;;8.25;100.00;102482.69;4798748;30;20039;-83
2021/09/20 06:29:58;;;;;;;6.30;5.15;;;;;;;8.31;100.00;102482.13;4790124;30;20027;-85
2021/09/20 06:32:24;;;;;;;7.55;5.20;;;;;;;8.38;100.00;102477.91;4790596;30;20135;-85
2021/09/20 06:34:50;;;;;;;7.72;5.13;;;;;;;8.38;100.00;102474.38;4786585;30;20056;-84
2021/09/20 06:37:15;;;;;;;7.70;5.05;;;;;;;8.37;100.00;102462.75;4770744;30;20036;-83
2021/09/20 06:39:41;;;;;;;6.90;5.13;;;;;;;8.54;100.00;102473.75;4788774;29;20091;-86
2021/09/20 06:42:06;;;;;;;6.45;5.10;;;;;;;8.49;100.00;102471.53;4773889;30;20043;-86
2021/09/20 06:44:33;;;;;;;8.00;5.10;;;;;;;8.60;100.00;102478.53;4786805;30;20078;-83
2021/09/20 06:46:59;;;;;;;8.30;5.68;;;;;;;8.66;100.00;102480.66;4789842;30;20031;-84
2021/09/20 06:49:25;;;;;;;6.05;5.18;;;;;;;8.69;100.00;102478.53;4786016;30;20058;-80
2021/09/20 06:51:51;;;;;;;7.13;5.15;;;;;;;8.77;100.00;102483.16;4774468;30;20064;-79
2021/09/20 06:54:21;;;;;;;8.48;5.38;;;;;;;8.87;100.00;102478.63;4776547;30;20514;-80
2021/09/20 06:56:47;;;;;;;9.75;5.20;;;;;;;8.97;100.00;102483.94;4761253;30;20486;-80
2021/09/20 06:59:13;;;;;;;6.78;5.10;;;;;;;9.03;100.00;102471.75;4780819;30;20031;-81
2021/09/20 07:01:39;;;;;;;5.85;5.22;;;;;;;9.07;100.00;102476.72;4781896;30;20099;-80
2021/09/20 07:04:05;;;;;;;6.40;5.20;;;;;;;9.06;100.00;102476.84;4766295;30;20345;-81
2021/09/20 07:06:31;;;;;;;6.85;4.97;;;;;;;9.13;100.00;102472.56;4751697;30;20031;-81
2021/09/20 07:08:56;;;;;;;5.22;4.72;;;;;;;9.22;100.00;102466.31;4759695;30;20050;-80
2021/09/20 07:11:22;;;;;;;5.10;4.60;;;;;;;9.33;100.00;102467.94;4775390;30;20113;-79
2021/09/20 07:13:47;;;;;;;8.18;4.78;;;;;;;9.50;100.00;102477.88;4773037;30;20092;-79
2021/09/20 07:16:13;;;;;;;6.80;4.47;;;;;;;9.39;100.00;102472.72;4758699;30;20118;-80
2021/09/20 07:18:38;;;;;;;4.85;4.03;;;;;;;9.39;99.44;102475.41;4773770;30;20036;-78
2021/09/20 07:21:04;;;;;;;6.25;4.70;;;;;;;9.29;99.63;102462.00;4772035;30;20365;-79
2021/09/20 07:23:29;;;;;;;5.65;4.80;;;;;;;9.40;99.38;102480.63;4762249;30;20031;-79
2021/09/20 07:25:55;;;;;;;4.97;4.38;;;;;;;9.36;99.20;102492.66;4742312;30;20188;-79
2021/09/20 07:28:21;;;;;;;5.53;4.78;;;;;;;9.50;99.07;102493.97;4759986;30;20114;-79
2021/09/20 07:30:48;;;;;;;5.24;4.74;;;;;;;9.27;98.96;102473.91;4756049;30;1231456;-76
2021/09/20 07:33:13;;;;;;;5.60;4.40;;;;;;;9.33;98.62;102490.25;4759373;30;20116;-79
2021/09/20 07:35:39;;;;;;;6.40;4.57;;;;;;;9.28;98.27;102480.97;4773931;30;20448;-79
2021/09/20 07:38:05;;;;;;;5.68;4.63;;;;;;;9.38;98.21;102490.69;4773237;30;20106;-79
2021/09/20 07:40:33;;;;;;;6.25;4.50;;;;;;;9.41;98.32;102500.28;4775650;30;20023;-77
2021/09/20 07:42:59;;;;;;;8.90;4.43;;;;;;;9.48;97.75;102487.94;4758158;30;20071;-79
2021/09/20 07:45:26;;;;;;;8.93;4.80;;;;;;;9.52;97.19;102486.63;4775807;30;20510;-79
2021/09/20 07:47:52;;;;;;;6.32;4.65;;;;;;;9.73;97.05;102497.09;4774722;30;20042;-79
2021/09/20 07:50:18;;;;;;;8.00;4.25;;;;;;;9.59;96.67;102500.31;4774927;30;20039;-78
2021/09/20 07:52:45;;;;;;;6.68;4.72;;;;;;;9.68;96.04;102510.16;4773285;30;20430;-78
2021/09/20 07:55:11;;;;;;;8.80;4.72;;;;;;;9.75;95.63;102502.34;4773883;30;20032;-79
2021/09/20 07:57:38;;;;;;;6.15;4.88;;;;;;;9.69;95.24;102476.91;4774711;30;20074;-79
2021/09/20 08:00:06;;;;;;;6.97;4.90;;;;;;;10.03;94.79;102508.47;4775172;30;20028;-79
2021/09/20 08:02:32;;;;;;;5.20;4.40;;;;;;;10.07;94.01;102509.88;4774708;30;20036;-78
2021/09/20 08:04:58;;;;;;;5.43;4.30;;;;;;;10.04;93.61;102512.88;4758706;30;20123;-78
2021/09/20 08:07:23;;;;;;;7.35;4.50;;;;;;;10.12;93.18;102512.94;4756806;30;20066;-78
2021/09/20 08:09:48;;;;;;;6.55;4.50;;;;;;;10.14;92.81;102524.41;4756587;30;20478;-79
2021/09/20 08:12:15;;;;;;;5.53;4.10;;;;;;;10.26;91.99;102525.88;4763377;30;20040;-78
2021/09/20 08:14:41;;;;;;;6.40;4.38;;;;;;;10.22;91.71;102524.47;4765441;30;20044;-78
2021/09/20 08:17:07;;;;;;;6.38;3.83;;;;;;;10.20;90.70;102534.56;4784069;30;20073;-79
2021/09/20 08:19:33;;;;;;;6.38;3.95;;;;;;;10.19;89.22;102527.47;4785347;30;20032;-79
2021/09/20 08:21:58;;;;;;;5.85;3.75;;;;;;;10.25;89.53;102532.22;4777077;30;20024;-78
2021/09/20 08:24:24;;;;;;;5.10;3.67;;;;;;;10.25;88.53;102513.41;4757966;30;20104;-79
2021/09/20 08:26:49;;;;;;;6.97;3.85;;;;;;;10.39;87.38;102530.03;4739929;30;20379;-79
2021/09/20 08:29:15;;;;;;;4.72;3.50;;;;;;;10.68;87.01;102524.34;4762840;30;20040;-78
2021/09/20 08:31:40;;;;;;;6.30;4.00;;;;;;;10.75;86.37;102528.09;4771456;30;20098;-78
2021/09/20 08:34:05;;;;;;;6.85;3.60;;;;;;;10.64;85.41;102528.38;4771448;30;20036;-79
2021/09/20 08:36:31;;;;;;;6.55;3.72;;;;;;;10.52;85.03;102514.31;4770491;30;20607;-79
2021/09/20 08:38:56;;;;;;;6.57;5.90;;;;;;;10.63;85.00;102514.06;4773225;30;20375;-79
2021/09/20 08:41:22;;;;;;;4.22;3.47;;;;;;;10.70;84.58;102530.44;4772425;30;20485;-78
2021/09/20 08:43:48;;;;;;;4.07;3.40;;;;;;;10.64;82.63;102526.53;4772071;30;20027;-79
2021/09/20 08:46:13;;;;;;;5.60;4.80;;;;;;;10.68;82.38;102530.59;4771670;30;20479;-79
2021/09/20 08:48:43;;;;;;;7.00;5.50;;;;;;;10.86;82.16;102533.25;4755749;30;20031;-79
2021/09/20 08:51:11;;;;;;;6.35;5.20;;;;;;;10.91;81.78;102530.06;4773148;30;20478;-78
2021/09/20 08:53:37;;;;;;;6.25;4.55;;;;;;;11.14;81.00;102530.38;4754936;30;20059;-79
2021/09/20 08:56:03;;;;;;;11.32;8.23;;;;;;;11.08;80.74;102529.16;4772802;30;20027;-79
2021/09/20 08:58:29;;;;;;;6.65;4.18;;;;;;;11.19;80.82;102526.19;4772749;30;20108;-79
2021/09/20 09:00:54;;;;;;;5.15;4.43;;;;;;;11.01;80.62;102510.09;4754439;30;20464;-79
2021/09/20 09:03:24;;;;;;;15.35;10.27;;;;;;;11.10;80.79;102518.22;4771951;30;20417;-79
2021/09/20 09:05:50;;;;;;;7.30;6.50;;;;;;;11.17;80.49;102509.34;4757363;30;20031;-79
2021/09/20 09:08:19;;;;;;;4.82;3.83;;;;;;;11.24;79.48;102517.63;4772668;30;20065;-79
2021/09/20 09:10:59;;;;;;;5.40;4.20;;;;;;;11.48;78.73;102511.47;4772695;30;20070;-79
2021/09/20 09:13:37;;;;;;;3.97;3.58;;;;;;;11.64;79.19;102506.13;4773295;30;20439;-80
2021/09/20 09:16:18;;;;;;;6.57;3.20;;;;;;;11.81;77.73;102514.25;4757950;30;20688;-79
2021/09/20 09:19:19;;;;;;;4.20;3.25;;;;;;;11.87;78.43;102506.38;4772777;30;20043;-79
2021/09/20 09:21:45;;;;;;;5.72;3.70;;;;;;;11.97;78.37;102503.53;4741580;30;20038;-79
2021/09/20 09:24:17;;;;;;;5.88;3.55;;;;;;;11.92;76.75;102489.69;4751673;30;20138;-79
2021/09/20 09:26:57;;;;;;;4.78;3.35;;;;;;;11.75;75.79;102481.56;4772928;30;20036;-78
2021/09/20 09:29:24;;;;;;;5.38;3.00;;;;;;;11.96;76.19;102504.56;4776147;30;20105;-80
2021/09/20 09:31:53;;;;;;;5.00;2.70;;;;;;;11.82;73.17;102510.53;4779214;30;20132;-81
2021/09/20 09:34:24;;;;;;;3.05;2.65;;;;;;;11.97;72.16;102506.22;4779449;30;20032;-81
2021/09/20 09:36:50;;;;;;;4.18;2.83;;;;;;;11.75;71.70;102492.34;4762684;30;20130;-80
2021/09/20 09:39:29;;;;;;;6.28;3.05;;;;;;;11.90;70.23;102505.22;4782899;30;20028;-80
2021/09/20 09:41:56;;;;;;;3.05;2.30;;;;;;;11.93;70.16;102499.50;4781863;30;20467;-78
2021/09/20 09:44:28;;;;;;;2.90;2.60;;;;;;;11.85;66.95;102496.75;4763782;30;20065;-78
2021/09/20 09:46:53;;;;;;;5.30;2.60;;;;;;;11.51;67.28;102466.16;4773848;30;20024;-80
2021/09/20 09:49:22;;;;;;;5.28;2.85;;;;;;;11.72;67.73;102481.91;4789486;30;20051;-80
2021/09/20 09:52:04;;;;;;;2.50;2.30;;;;;;;11.87;66.84;102502.84;4775987;30;20032;-79
2021/09/20 09:54:42;;;;;;;2.97;2.45;;;;;;;11.86;64.79;102493.91;4771061;30;20036;-79
2021/09/20 09:57:23;;;;;;;3.20;2.33;;;;;;;11.89;64.93;102481.97;4772294;30;20039;-78
2021/09/20 10:00:10;;;;;;;3.58;2.60;;;;;;;12.02;65.61;102474.22;4774952;30;20039;-80
2021/09/20 10:02:37;;;;;;;2.92;2.65;;;;;;;12.08;66.57;102468.13;4764900;30;20040;-80
2021/09/20 10:05:09;;;;;;;6.00;2.58;;;;;;;12.23;65.72;102468.31;4786831;30;20050;-81
2021/09/20 10:07:39;;;;;;;3.25;2.55;;;;;;;12.33;65.71;102473.53;4760870;30;20432;-79
2021/09/20 10:10:11;;;;;;;4.57;2.42;;;;;;;12.11;62.30;102480.44;4776013;30;20336;-80
2021/09/20 10:12:40;;;;;;;3.05;2.05;;;;;;;12.10;62.60;102494.94;4752150;30;20044;-80
2021/09/20 10:15:07;;;;;;;3.50;2.22;;;;;;;12.20;62.07;102485.66;4756163;30;20459;-80
2021/09/20 10:17:33;;;;;;;2.85;2.30;;;;;;;12.37;62.27;102491.91;4776528;30;20031;-81
2021/09/20 10:20:01;;;;;;;3.58;2.10;;;;;;;12.25;61.53;102489.72;4760625;30;20043;-80
2021/09/20 10:22:27;;;;;;;4.93;2.25;;;;;;;12.35;61.33;102477.75;4783394;30;20035;-78
2021/09/20 10:24:55;;;;;;;3.28;2.30;;;;;;;12.50;61.19;102490.56;4782274;30;20047;-80
2021/09/20 10:27:23;;;;;;;2.40;2.20;;;;;;;12.44;61.17;102492.91;4753227;30;20447;-80
2021/09/20 10:29:55;;;;;;;2.55;2.35;;;;;;;12.69;61.27;102488.31;4789564;30;20058;-79
2021/09/20 10:32:25;;;;;;;2.60;2.40;;;;;;;12.63;61.52;102480.06;4754273;30;20056;-79
2021/09/20 10:34:50;;;;;;;3.00;2.47;;;;;;;12.78;61.36;102482.88;4765169;30;20034;-79
2021/09/20 10:37:22;;;;;;;2.47;2.28;;;;;;;12.65;60.04;102481.59;4778296;30;20091;-80
2021/09/20 10:39:52;;;;;;;2.60;2.40;;;;;;;12.66;60.50;102480.56;4790433;30;20028;-81
2021/09/20 10:42:36;;;;;;;2.28;2.00;;;;;;;12.70;58.27;102492.69;4792003;30;20026;-82
2021/09/20 10:45:08;;;;;;;4.20;2.60;;;;;;;12.63;59.62;102499.81;4793042;30;20036;-80
2021/09/20 10:47:45;;;;;;;2.10;2.00;;;;;;;12.55;58.97;102482.75;4777704;30;20026;-81
2021/09/20 10:50:11;;;;;;;3.17;2.10;;;;;;;12.64;60.56;102487.97;4789040;30;20050;-80
2021/09/20 10:52:57;;;;;;;3.08;1.75;;;;;;;12.25;57.98;102441.13;4790864;30;20059;-80
2021/09/20 10:55:23;;;;;;;2.85;1.70;;;;;;;12.45;56.93;102483.81;4772194;30;20040;-80
2021/09/20 10:58:19;;;;;;;2.08;1.88;;;;;;;12.50;55.47;102480.59;4765525;30;20036;-81
2021/09/20 11:00:44;;;;;;;;;;;;;;;12.58;57.82;102485.13;4765638;30;20099;-80
2021/09/20 11:03:39;;;;;;;3.40;2.03;;;;;;;13.04;58.02;102475.38;4781107;30;19953;-80
2021/09/20 11:06:28;;;;;;;1.70;1.60;;;;;;;13.08;52.08;102470.50;4753163;30;20035;-80
2021/09/20 11:09:02;;;;;;;1.58;1.30;;;;;;;13.05;52.33;102476.25;4789645;30;20020;-81
2021/09/20 11:11:41;;;;;;;1.83;1.50;;;;;;;13.11;47.58;102453.91;4770562;30;20065;-81
2021/09/20 11:14:18;;;;;;;1.73;1.40;;;;;;;13.06;49.54;102453.59;4775987;30;20032;-80
2021/09/20 11:16:55;;;;;;;2.72;1.98;;;;;;;13.10;51.08;102461.16;4781137;30;20328;-79
2021/09/20 11:19:32;;;;;;;1.70;1.60;;;;;;;12.86;51.79;102456.72;4781287;30;20039;-80
2021/09/20 11:22:14;;;;;;;1.73;1.30;;;;;;;12.86;50.76;102466.69;4768920;30;20024;-81
2021/09/20 11:24:42;;;;;;;1.65;1.55;;;;;;;12.80;51.21;102464.66;4791330;30;20027;-81
2021/09/20 11:27:35;;;;;;;3.80;2.00;;;;;;;12.92;51.61;102458.72;4796389;30;20047;-80
2021/09/20 11:30:09;;;;;;;1.77;1.58;;;;;;;13.02;51.86;102463.91;4765050;30;20028;-79
2021/09/20 11:32:45;;;;;;;1.98;1.60;;;;;;;12.75;50.63;102470.59;4768221;30;20497;-79
2021/09/20 11:35:11;;;;;;;2.35;1.70;;;;;;;12.67;52.25;102465.19;4768167;30;20064;-79